createdAt,value
2022-11-12T00:01:35.613Z,101415.81
2022-11-12T00:04:23.258Z,101414.97
2022-11-12T00:07:10.549Z,101413.25
2022-11-12T00:09:58.908Z,101413.25
2022-11-12T00:12:45.972Z,101412.41
2022-11-12T00:15:32.881Z,101413.25
2022-11-12T00:18:20.407Z,101409.78
2022-11-12T00:21:07.941Z,101416.84
2022-11-12T00:23:54.948Z,101411.59
2022-11-12T00:26:43.932Z,101418.56
2022-11-12T00:29:31.654Z,101413.34
2022-11-12T00:32:19.904Z,101408.06
2022-11-12T00:35:12.475Z,101408.06
2022-11-12T00:38:01.773Z,101413.31
2022-11-12T00:40:49.084Z,101413.31
2022-11-12T00:43:37.611Z,101422.91
2022-11-12T00:46:25.002Z,101420.31
2022-11-12T00:49:12.201Z,101428.13
2022-11-12T00:51:59.439Z,101416.84
2022-11-12T00:54:46.994Z,101423.78
2022-11-12T00:57:34.338Z,101413.31
2022-11-12T01:00:23.259Z,101405.44
2022-11-12T01:03:10.993Z,101404.53
2022-11-12T01:06:03.752Z,101409.78
2022-11-12T01:08:51.752Z,101410.66
2022-11-12T01:11:39.143Z,101409.78
2022-11-12T01:14:26.704Z,101410.69
2022-11-12T01:17:15.640Z,101409.78
2022-11-12T01:20:02.508Z,101418.50
2022-11-12T01:22:49.798Z,101421.94
2022-11-12T01:25:39.657Z,101413.19
2022-11-12T01:28:27.395Z,101402.75
2022-11-12T01:31:17.188Z,101400.16
2022-11-12T01:34:07.466Z,101402.75
2022-11-12T01:36:54.878Z,101412.34
2022-11-12T01:39:42.190Z,101403.56
2022-11-12T01:42:31.843Z,101407.91
2022-11-12T01:45:19.234Z,101406.19
2022-11-12T01:48:06.715Z,101416.69
2022-11-12T01:50:56.492Z,101410.63
2022-11-12T01:53:48.965Z,101413.25
2022-11-12T01:56:39.497Z,101408.88
2022-11-12T01:59:35.867Z,101410.66
2022-11-12T02:02:23.102Z,101406.34
2022-11-12T02:05:12.431Z,101406.34
2022-11-12T02:08:02.662Z,101401.09
2022-11-12T02:10:49.792Z,101410.69
2022-11-12T02:13:54.885Z,101408.06
2022-11-12T02:16:44.948Z,101409.81
2022-11-12T02:19:32.396Z,101403.72
2022-11-12T02:22:21.305Z,101411.59
2022-11-12T02:25:10.829Z,101401.09
2022-11-12T02:27:59.700Z,101409.75
2022-11-12T02:30:49.227Z,101408.03
2022-11-12T02:33:36.388Z,101414.22
2022-11-12T02:36:23.889Z,101421.19
2022-11-12T02:39:12.271Z,101417.69
2022-11-12T02:41:59.268Z,101418.56
2022-11-12T02:44:46.745Z,101421.16
2022-11-12T02:47:33.556Z,101420.31
2022-11-12T02:50:21.252Z,101429.03
2022-11-12T02:53:08.341Z,101424.69
2022-11-12T02:55:56.638Z,101422.06
2022-11-12T02:58:43.208Z,101424.69
2022-11-12T03:01:30.790Z,101418.56
2022-11-12T03:04:18.503Z,101421.16
2022-11-12T03:07:05.204Z,101423.78
2022-11-12T03:09:52.752Z,101428.09
2022-11-12T03:12:41.301Z,101429.84
2022-11-12T03:15:29.679Z,101435.06
2022-11-12T03:18:16.840Z,101421.94
2022-11-12T03:21:05.489Z,101423.66
2022-11-12T03:23:52.629Z,101417.47
2022-11-12T03:26:39.845Z,101423.66
2022-11-12T03:29:28.606Z,101421.03
2022-11-12T03:32:15.479Z,101432.41
2022-11-12T03:35:02.700Z,101428.06
2022-11-12T03:37:49.641Z,101431.53
2022-11-12T03:40:36.681Z,101434.13
2022-11-12T03:43:23.682Z,101431.53
2022-11-12T03:46:12.194Z,101437.66
2022-11-12T03:49:02.260Z,101443.78
2022-11-12T03:51:50.395Z,101439.47
2022-11-12T03:54:37.702Z,101443.78
2022-11-12T03:57:24.556Z,101437.66
2022-11-12T04:00:14.062Z,101442.00
2022-11-12T04:03:02.854Z,101443.78
2022-11-12T04:06:08.007Z,101437.69
2022-11-12T04:08:55.531Z,101436.88
2022-11-12T04:11:42.859Z,101432.56
2022-11-12T04:14:29.639Z,101439.53
2022-11-12T04:17:35.028Z,101436.91
2022-11-12T04:20:40.711Z,101431.69
2022-11-12T04:23:27.854Z,101442.19
2022-11-12T04:26:25.785Z,101436.94
2022-11-12T04:29:33.794Z,101440.44
2022-11-12T04:32:25.783Z,101435.22
2022-11-12T04:35:13.354Z,101431.72
2022-11-12T04:38:02.137Z,101436.13
2022-11-12T04:41:07.483Z,101432.63
2022-11-12T04:44:12.249Z,101430.00
2022-11-12T04:47:00.350Z,101424.84
2022-11-12T04:49:47.700Z,101420.56
2022-11-12T04:52:36.015Z,101419.72
2022-11-12T04:55:24.294Z,101419.81
2022-11-12T04:58:11.794Z,101420.66
2022-11-12T05:00:59.285Z,101423.34
2022-11-12T05:03:46.585Z,101425.06
2022-11-12T05:06:51.145Z,101416.34
2022-11-12T05:09:39.119Z,101415.53
2022-11-12T05:12:28.308Z,101415.53
2022-11-12T05:15:15.637Z,101419.09
2022-11-12T05:18:02.928Z,101416.50
2022-11-12T05:20:51.486Z,101419.16
2022-11-12T05:23:39.782Z,101423.63
2022-11-12T05:26:27.034Z,101428.97
2022-11-12T05:29:15.641Z,101422.03
2022-11-12T05:32:03.305Z,101433.41
2022-11-12T05:34:50.489Z,101429.03
2022-11-12T05:37:37.920Z,101432.59
2022-11-12T05:40:25.736Z,101436.22
2022-11-12T05:43:12.767Z,101437.97
2022-11-12T05:46:01.591Z,101441.47
2022-11-12T05:48:48.599Z,101436.31
2022-11-12T05:51:35.758Z,101443.34
2022-11-12T05:54:25.243Z,101444.28
2022-11-12T05:57:12.329Z,101447.81
2022-11-12T05:59:59.612Z,101450.47
2022-11-12T06:02:48.228Z,101449.66
2022-11-12T06:05:35.770Z,101449.72
2022-11-12T06:08:23.523Z,101456.78
2022-11-12T06:11:10.413Z,101458.59
2022-11-12T06:13:57.764Z,101463.84
2022-11-12T06:16:45.482Z,101468.25
2022-11-12T06:19:34.210Z,101467.38
2022-11-12T06:22:21.525Z,101472.66
2022-11-12T06:25:09.582Z,101478.81
2022-11-12T06:27:57.077Z,101483.25
2022-11-12T06:30:43.856Z,101476.31
2022-11-12T06:33:30.938Z,101474.59
2022-11-12T06:36:21.094Z,101477.22
2022-11-12T06:39:08.362Z,101479.84
2022-11-12T06:41:55.903Z,101490.34
2022-11-12T06:44:43.376Z,101482.53
2022-11-12T06:47:30.685Z,101480.84
2022-11-12T06:50:17.781Z,101484.34
2022-11-12T06:53:06.388Z,101491.31
2022-11-12T06:55:54.281Z,101487.84
2022-11-12T06:58:41.926Z,101483.47
2022-11-12T07:01:28.938Z,101494.78
2022-11-12T07:04:16.093Z,101494.78
2022-11-12T07:07:09.359Z,101503.50
2022-11-12T07:09:58.972Z,101495.63
2022-11-12T07:12:52.050Z,101502.56
2022-11-12T07:15:40.373Z,101504.25
2022-11-12T07:18:28.897Z,101496.41
2022-11-12T07:21:18.394Z,101494.69
2022-11-12T07:24:06.610Z,101497.28
2022-11-12T07:26:55.507Z,101497.28
2022-11-12T07:29:47.934Z,101498.19
2022-11-12T07:32:40.254Z,101500.81
2022-11-12T07:35:30.418Z,101499.91
2022-11-12T07:38:17.624Z,101494.63
2022-11-12T07:41:07.712Z,101480.69
2022-11-12T07:43:56.477Z,101487.63
2022-11-12T07:46:43.706Z,101482.41
2022-11-12T07:49:30.716Z,101471.09
2022-11-12T07:52:18.425Z,101492.88
2022-11-12T07:55:07.232Z,101484.09
2022-11-12T07:57:55.298Z,101490.13
2022-11-12T08:00:44.009Z,101487.47
2022-11-12T08:03:31.067Z,101480.50
2022-11-12T08:06:18.084Z,101490.13
2022-11-12T08:09:07.024Z,101486.69
2022-11-12T08:11:55.700Z,101502.41
2022-11-12T08:14:44.419Z,101497.31
2022-11-12T08:17:33.001Z,101510.38
2022-11-12T08:20:20.086Z,101509.50
2022-11-12T08:23:07.974Z,101506.00
2022-11-12T08:25:58.571Z,101510.41
2022-11-12T08:28:46.069Z,101509.56
2022-11-12T08:31:33.306Z,101515.75
2022-11-12T08:34:22.950Z,101518.56
2022-11-12T08:37:10.243Z,101516.84
2022-11-12T08:39:57.622Z,101529.03
2022-11-12T08:42:44.441Z,101532.50
2022-11-12T08:45:34.588Z,101525.56
2022-11-12T08:48:22.093Z,101535.13
2022-11-12T08:51:10.946Z,101532.50
2022-11-12T08:53:58.519Z,101534.22
2022-11-12T08:56:49.262Z,101535.97
2022-11-12T08:59:36.631Z,101530.78
2022-11-12T09:02:24.054Z,101532.53
2022-11-12T09:05:11.384Z,101525.63
2022-11-12T09:08:01.394Z,101530.00
2022-11-12T09:10:49.070Z,101533.47
2022-11-12T09:13:36.860Z,101530.00
2022-11-12T09:16:24.388Z,101543.09
2022-11-12T09:19:12.026Z,101539.59
2022-11-12T09:21:59.326Z,101537.91
2022-11-12T09:24:48.593Z,101538.78
2022-11-12T09:27:35.660Z,101544.81
2022-11-12T09:30:23.206Z,101554.34
2022-11-12T09:33:10.789Z,101556.06
2022-11-12T09:36:01.137Z,101546.41
2022-11-12T09:38:48.505Z,101548.19
2022-11-12T09:41:39.669Z,101546.50
2022-11-12T09:44:27.326Z,101549.94
2022-11-12T09:47:18.466Z,101549.16
2022-11-12T09:50:19.912Z,101557.88
2022-11-12T09:53:15.811Z,101562.25
2022-11-12T09:56:08.094Z,101551.00
2022-11-12T09:58:56.936Z,101554.50
2022-11-12T10:01:54.195Z,101552.66
2022-11-12T10:04:53.128Z,101556.97
2022-11-12T10:07:53.408Z,101561.34
2022-11-12T10:10:47.485Z,101553.53
2022-11-12T10:13:47.514Z,101549.16
2022-11-12T10:16:50.345Z,101551.75
2022-11-12T10:19:47.950Z,101548.34
2022-11-12T10:22:48.330Z,101551.84
2022-11-12T10:25:37.342Z,101556.16
2022-11-12T10:28:33.159Z,101560.56
2022-11-12T10:31:24.801Z,101555.38
2022-11-12T10:34:19.968Z,101559.75
2022-11-12T10:37:09.033Z,101551.91
2022-11-12T10:39:55.943Z,101565.00
2022-11-12T10:42:58.955Z,101566.78
2022-11-12T10:45:47.104Z,101563.34
2022-11-12T10:48:35.424Z,101571.22
2022-11-12T10:51:29.425Z,101562.47
2022-11-12T10:54:37.481Z,101563.28
2022-11-12T10:57:26.830Z,101556.34
2022-11-12T11:00:20.931Z,101562.47
2022-11-12T11:03:19.147Z,101562.50
2022-11-12T11:06:08.464Z,101566.03
2022-11-12T11:09:16.411Z,101559.97
2022-11-12T11:12:04.599Z,101557.34
2022-11-12T11:15:08.249Z,101562.59
2022-11-12T11:17:56.722Z,101562.63
2022-11-12T11:20:52.009Z,101560.91
2022-11-12T11:23:49.269Z,101567.97
2022-11-12T11:26:50.920Z,101563.63
2022-11-12T11:29:57.382Z,101553.16
2022-11-12T11:33:20.976Z,101557.47
2022-11-12T11:36:25.858Z,101560.09
2022-11-12T11:39:25.248Z,101566.94
2022-11-12T11:42:33.353Z,101564.28
2022-11-12T11:45:29.121Z,101564.22
2022-11-12T11:48:33.916Z,101559.84
2022-11-12T11:51:39.676Z,101556.31
2022-11-12T11:54:48.049Z,101566.81
2022-11-12T11:57:48.264Z,101566.81
2022-11-12T12:00:47.324Z,101571.19
2022-11-12T12:03:48.328Z,101572.03
2022-11-12T12:06:41.353Z,101568.56
2022-11-12T12:09:37.653Z,101561.56
2022-11-12T12:12:43.357Z,101565.91
2022-11-12T12:15:50.747Z,101568.50
2022-11-12T12:18:46.569Z,101557.22
2022-11-12T12:21:39.032Z,101554.63
2022-11-12T12:24:31.286Z,101558.13
2022-11-12T12:27:23.198Z,101560.75
2022-11-12T12:30:21.025Z,101557.22
2022-11-12T12:33:30.776Z,101560.72
2022-11-12T12:36:22.267Z,101556.41
2022-11-12T12:39:16.281Z,101552.94
2022-11-12T12:42:15.870Z,101565.13
2022-11-12T12:45:25.243Z,101555.56
2022-11-12T12:48:21.833Z,101544.19
2022-11-12T12:51:09.959Z,101562.44
2022-11-12T12:53:57.265Z,101559.91
2022-11-12T12:56:48.036Z,101559.91
2022-11-12T12:59:36.144Z,101552.13
2022-11-12T13:02:26.862Z,101547.78
2022-11-12T13:05:29.184Z,101543.41
2022-11-12T13:08:21.407Z,101545.16
2022-11-12T13:11:08.768Z,101545.16
2022-11-12T13:13:56.905Z,101558.19
2022-11-12T13:17:05.735Z,101555.56
2022-11-12T13:20:19.714Z,101546.88
2022-11-12T13:23:12.169Z,101550.38
2022-11-12T13:26:33.063Z,101542.59
2022-11-12T13:29:40.729Z,101545.22
2022-11-12T13:32:43.242Z,101554.84
2022-11-12T13:35:37.772Z,101549.59
2022-11-12T13:38:26.007Z,101548.72
2022-11-12T13:41:19.712Z,101544.41
2022-11-12T13:44:09.310Z,101545.31
2022-11-12T13:46:57.995Z,101547.09
2022-11-12T13:49:48.176Z,101557.59
2022-11-12T13:52:37.597Z,101545.31
2022-11-12T13:55:28.578Z,101560.13
2022-11-12T13:58:22.294Z,101553.16
2022-11-12T14:01:09.631Z,101546.13
2022-11-12T14:03:57.028Z,101557.50
2022-11-12T14:06:46.732Z,101566.25
2022-11-12T14:09:52.158Z,101554.00
2022-11-12T14:13:03.462Z,101558.44
2022-11-12T14:16:00.677Z,101552.28
2022-11-12T14:19:15.798Z,101556.69
2022-11-12T14:22:12.845Z,101552.28
2022-11-12T14:25:03.837Z,101568.00
2022-11-12T14:27:55.325Z,101561.03
2022-11-12T14:30:46.382Z,101558.44
2022-11-12T14:33:35.486Z,101554.09
2022-11-12T14:36:24.397Z,101572.28
2022-11-12T14:39:13.002Z,101568.06
2022-11-12T14:42:02.053Z,101569.84
2022-11-12T14:44:49.425Z,101574.19
2022-11-12T14:47:36.623Z,101578.53
2022-11-12T14:50:29.315Z,101571.59
2022-11-12T14:53:25.224Z,101572.50
2022-11-12T14:56:35.204Z,101575.09
2022-11-12T14:59:25.073Z,101575.13
2022-11-12T15:02:42.686Z,101574.25
2022-11-12T15:05:23.840Z,101571.59
2022-11-12T15:08:13.100Z,101576.78
2022-11-12T15:11:21.774Z,101569.88
2022-11-12T15:14:21.646Z,101576.84
2022-11-12T15:17:28.963Z,101575.09
2022-11-12T15:20:23.004Z,101576.84
2022-11-12T15:23:19.561Z,101586.47
2022-11-12T15:26:15.087Z,101583.94
2022-11-12T15:29:15.377Z,101583.94
2022-11-12T15:32:08.648Z,101583.94
2022-11-12T15:35:00.958Z,101594.31
2022-11-12T15:37:48.314Z,101592.69
2022-11-12T15:40:47.128Z,101589.16
2022-11-12T15:43:42.586Z,101590.06
2022-11-12T15:46:30.216Z,101590.06
2022-11-12T15:49:17.428Z,101595.28
2022-11-12T15:52:06.480Z,101595.22
2022-11-12T15:54:53.853Z,101597.84
2022-11-12T15:57:44.857Z,101596.06
2022-11-12T16:00:34.330Z,101599.56
2022-11-12T16:03:22.968Z,101587.25
2022-11-12T16:06:12.112Z,101592.53
2022-11-12T16:09:00.829Z,101598.72
2022-11-12T16:11:48.792Z,101609.16
2022-11-12T16:14:35.725Z,101610.91
2022-11-12T16:17:22.676Z,101613.53
2022-11-12T16:20:15.568Z,101604.84
2022-11-12T16:23:03.491Z,101611.78
2022-11-12T16:25:52.496Z,101605.66
2022-11-12T16:28:39.781Z,101603.84
2022-11-12T16:31:27.202Z,101616.91
2022-11-12T16:34:14.750Z,101611.63
2022-11-12T16:37:02.193Z,101622.88
2022-11-12T16:39:50.820Z,101622.94
2022-11-12T16:42:45.672Z,101620.34
2022-11-12T16:45:36.366Z,101617.75
2022-11-12T16:48:24.252Z,101622.94
2022-11-12T16:51:17.623Z,101623.78
2022-11-12T16:54:04.968Z,101627.28
2022-11-12T16:56:52.206Z,101622.97
2022-11-12T16:59:42.024Z,101625.59
2022-11-12T17:02:29.257Z,101625.56
2022-11-12T17:05:20.235Z,101629.06
2022-11-12T17:08:08.011Z,101638.63
2022-11-12T17:10:56.554Z,101628.19
2022-11-12T17:13:44.346Z,101636.06
2022-11-12T17:16:33.863Z,101640.41
2022-11-12T17:19:21.284Z,101639.56
2022-11-12T17:22:08.446Z,101640.38
2022-11-12T17:24:55.683Z,101630.81
2022-11-12T17:27:43.143Z,101628.19
2022-11-12T17:30:33.176Z,101639.53
2022-11-12T17:33:21.491Z,101639.56
2022-11-12T17:36:11.338Z,101644.72
2022-11-12T17:38:59.763Z,101649.94
2022-11-12T17:41:47.516Z,101646.47
2022-11-12T17:44:34.950Z,101634.16
2022-11-12T17:47:22.388Z,101638.63
2022-11-12T17:50:11.323Z,101642.16
2022-11-12T17:52:58.649Z,101636.03
2022-11-12T17:55:45.778Z,101643.00
2022-11-12T17:58:33.510Z,101637.75
2022-11-12T18:01:22.723Z,101636.06
2022-11-12T18:04:11.720Z,101627.38
2022-11-12T18:07:00.129Z,101641.28
2022-11-12T18:09:47.155Z,101633.44
2022-11-12T18:12:36.561Z,101640.47
2022-11-12T18:15:25.542Z,101644.72
2022-11-12T18:18:12.542Z,101638.69
2022-11-12T18:20:59.821Z,101631.72
2022-11-12T18:23:48.000Z,101634.34
2022-11-12T18:26:35.211Z,101631.63
2022-11-12T18:29:22.278Z,101632.59
2022-11-12T18:32:09.871Z,101622.16
2022-11-12T18:34:58.044Z,101628.22
2022-11-12T18:37:46.004Z,101623.88
2022-11-12T18:40:34.747Z,101622.94
2022-11-12T18:43:21.821Z,101620.38
2022-11-12T18:46:12.526Z,101623.88
2022-11-12T18:49:00.736Z,101640.41
2022-11-12T18:51:47.554Z,101627.28
2022-11-12T18:54:35.321Z,101621.19
2022-11-12T18:57:24.842Z,101631.66
2022-11-12T19:00:15.836Z,101630.72
2022-11-12T19:03:03.048Z,101631.69
2022-11-12T19:05:50.414Z,101643.00
2022-11-12T19:08:37.327Z,101629.09
2022-11-12T19:11:24.535Z,101630.81
2022-11-12T19:14:12.998Z,101636.97
2022-11-12T19:17:01.325Z,101639.56
2022-11-12T19:19:49.587Z,101629.03
2022-11-12T19:22:36.630Z,101639.56
2022-11-12T19:25:24.275Z,101643.06
2022-11-12T19:28:14.211Z,101639.56
2022-11-12T19:31:07.205Z,101637.78
2022-11-12T19:33:55.644Z,101636.03
2022-11-12T19:36:43.323Z,101637.75
2022-11-12T19:39:30.631Z,101637.69
2022-11-12T19:42:18.109Z,101644.72
2022-11-12T19:45:06.822Z,101642.06
2022-11-12T19:47:55.550Z,101632.50
2022-11-12T19:50:42.824Z,101627.28
2022-11-12T19:53:32.593Z,101624.69
2022-11-12T19:56:21.732Z,101642.97
2022-11-12T19:59:09.916Z,101643.88
2022-11-12T20:01:57.182Z,101629.06
2022-11-12T20:04:46.243Z,101634.31
2022-11-12T20:07:33.394Z,101636.84
2022-11-12T20:10:21.246Z,101629.78
2022-11-12T20:13:08.841Z,101627.28
2022-11-12T20:15:56.373Z,101629.03
2022-11-12T20:18:47.333Z,101624.69
2022-11-12T20:21:39.635Z,101624.69
2022-11-12T20:24:28.133Z,101623.69
2022-11-12T20:27:16.001Z,101624.66
2022-11-12T20:30:03.262Z,101632.41
2022-11-12T20:32:50.429Z,101629.00
2022-11-12T20:35:38.276Z,101622.94
2022-11-12T20:38:27.126Z,101630.78
2022-11-12T20:41:16.219Z,101641.19
2022-11-12T20:44:03.916Z,101637.69
2022-11-12T20:46:51.854Z,101625.47
2022-11-12T20:49:39.438Z,101635.94
2022-11-12T20:52:27.425Z,101635.06
2022-11-12T20:55:16.645Z,101636.84
2022-11-12T20:58:03.743Z,101639.47
2022-11-12T21:00:51.814Z,101641.19
2022-11-12T21:03:40.364Z,101655.16
2022-11-12T21:06:29.730Z,101642.97
2022-11-12T21:09:16.744Z,101639.47
2022-11-12T21:12:05.936Z,101640.28
2022-11-12T21:14:52.906Z,101655.16
2022-11-12T21:17:39.998Z,101641.19
2022-11-12T21:20:27.329Z,101642.97
2022-11-12T21:23:14.312Z,101649.94
2022-11-12T21:26:06.235Z,101655.19
2022-11-12T21:28:55.739Z,101652.53
2022-11-12T21:31:43.162Z,101659.50
2022-11-12T21:34:30.391Z,101658.66
2022-11-12T21:37:18.395Z,101647.28
2022-11-12T21:40:06.381Z,101641.19
2022-11-12T21:42:53.706Z,101651.66
2022-11-12T21:45:47.703Z,101651.63
2022-11-12T21:48:35.088Z,101649.81
2022-11-12T21:51:25.154Z,101656.88
2022-11-12T21:54:15.236Z,101656.84
2022-11-12T21:57:02.390Z,101650.81
2022-11-12T21:59:49.643Z,101655.19
2022-11-12T22:02:38.608Z,101655.25
2022-11-12T22:05:25.912Z,101656.97
2022-11-12T22:08:13.020Z,101656.97
2022-11-12T22:11:05.078Z,101661.28
2022-11-12T22:13:52.154Z,101670.91
2022-11-12T22:16:39.593Z,101672.66
2022-11-12T22:19:28.105Z,101657.84
2022-11-12T22:22:15.169Z,101663.09
2022-11-12T22:25:02.373Z,101654.38
2022-11-12T22:27:49.743Z,101667.41
2022-11-12T22:30:36.610Z,101668.22
2022-11-12T22:33:23.739Z,101666.50
2022-11-12T22:36:15.640Z,101660.41
2022-11-12T22:39:03.764Z,101670.88
2022-11-12T22:41:51.247Z,101669.13
2022-11-12T22:44:38.160Z,101667.41
2022-11-12T22:47:26.222Z,101668.31
2022-11-12T22:50:13.459Z,101673.53
2022-11-12T22:53:03.321Z,101656.09
2022-11-12T22:55:50.455Z,101662.25
2022-11-12T22:58:38.743Z,101665.69
2022-11-12T23:01:28.255Z,101660.47
2022-11-12T23:04:15.346Z,101664.00
2022-11-12T23:07:02.627Z,101654.44
2022-11-12T23:09:51.036Z,101653.56
2022-11-12T23:12:38.281Z,101650.03
2022-11-12T23:15:25.433Z,101652.66
2022-11-12T23:18:12.565Z,101653.56
2022-11-12T23:21:03.839Z,101653.56
2022-11-12T23:23:52.708Z,101658.81
2022-11-12T23:26:41.216Z,101648.31
2022-11-12T23:29:28.704Z,101648.31
2022-11-12T23:32:16.180Z,101644.78
2022-11-12T23:35:06.917Z,101647.41
2022-11-12T23:37:54.242Z,101645.66
2022-11-12T23:40:41.226Z,101634.34
2022-11-12T23:43:30.223Z,101630.78
2022-11-12T23:46:17.616Z,101630.91
2022-11-12T23:49:04.936Z,101624.75
2022-11-12T23:51:51.792Z,101622.97
2022-11-12T23:54:38.781Z,101629.03
2022-11-12T23:57:25.931Z,101633.50
